Time,TemperatureF,DewpointF,PressureIn,WindDirection,WindDirectionDegrees,WindSpeedMPH,WindSpeedGustMPH,Humidity,HourlyPrecipIn,Conditions,Clouds,dailyrainin,SolarRadiationWatts/m^2,SoftwareType,DateUTC
2013-08-05 00:00:00,55.1,51.6,29.90,West,274,0.0,1.0,88,0.00,,,0.00,0.0,WUHU216DAVISVP2,2013-08-05 04:00:00,
2013-08-05 00:01:00,55.1,51.6,29.90,West,274,0.0,1.0,88,0.00,,,0.00,0.0,WUHU216DAVISVP2,2013-08-05 04:01:00,
2013-08-05 00:02:00,55.0,51.5,29.90,West,274,0.0,1.0,88,0.00,,,0.00,0.0,WUHU216DAVISVP2,2013-08-05 04:02:00,
2013-08-05 00:07:00,54.7,51.2,29.90,West,274,0.0,1.0,88,0.00,,,0.00,0.0,WUHU216DAVISVP2,2013-08-05 04:07:00,
2013-08-05 00:12:00,54.4,51.2,29.90,West,274,0.0,1.0,89,0.00,,,0.00,0.0,WUHU216DAVISVP2,2013-08-05 04:12:00,
2013-08-05 00:17:00,54.3,51.1,29.91,West,274,0.0,1.0,89,0.00,,,0.00,0.0,WUHU216DAVISVP2,2013-08-05 04:17:00,
2013-08-05 00:21:00,54.3,51.1,29.91,West,274,0.0,1.0,89,0.00,,,0.00,0.0,WUHU216DAVISVP2,2013-08-05 04:21:00,
2013-08-05 00:27:00,54.2,51.0,29.91,West,274,0.0,1.0,89,0.00,,,0.00,0.0,WUHU216DAVISVP2,2013-08-05 04:27:00,
2013-08-05 00:32:00,54.3,51.4,29.91,West,274,0.0,1.0,90,0.00,,,0.00,0.0,WUHU216DAVISVP2,2013-08-05 04:32:00,
2013-08-05 00:37:00,54.5,51.6,29.91,West,274,1.0,1.0,90,0.00,,,0.00,0.0,WUHU216DAVISVP2,2013-08-05 04:37:00,
2013-08-05 00:42:00,54.5,51.3,29.91,West,274,0.0,1.0,89,0.00,,,0.00,0.0,WUHU216DAVISVP2,2013-08-05 04:42:00,
2013-08-05 00:47:00,54.4,51.2,29.91,West,274,0.0,1.0,89,0.00,,,0.00,0.0,WUHU216DAVISVP2,2013-08-05 04:47:00,
2013-08-05 00:52:00,54.4,51.5,29.91,West,274,0.0,1.0,90,0.00,,,0.00,0.0,WUHU216DAVISVP2,2013-08-05 04:52:00,
2013-08-05 00:57:00,54.7,51.8,29.90,West,274,0.0,1.0,90,0.00,,,0.00,0.0,WUHU216DAVISVP2,2013-08-05 04:57:00,
2013-08-05 01:02:00,54.7,51.8,29.91,West,274,0.0,1.0,90,0.00,,,0.00,0.0,WUHU216DAVISVP2,2013-08-05 05:02:00,
2013-08-05 01:07:00,54.6,51.7,29.91,West,274,0.0,1.0,90,0.00,,,0.00,0.0,WUHU216DAVISVP2,2013-08-05 05:07:00,
2013-08-05 01:12:00,54.6,51.7,29.91,West,274,0.0,1.0,90,0.00,,,0.00,0.0,WUHU216DAVISVP2,2013-08-05 05:12:00,
2013-08-05 01:17:00,54.5,51.3,29.90,West,274,0.0,1.0,89,0.00,,,0.00,0.0,WUHU216DAVISVP2,2013-08-05 05:17:00,
2013-08-05 01:22:00,54.2,51.3,29.91,West,274,0.0,1.0,90,0.00,,,0.00,0.0,WUHU216DAVISVP2,2013-08-05 05:22:00,
2013-08-05 01:27:00,54.2,51.3,29.91,West,274,0.0,0.0,90,0.00,,,0.00,0.0,WUHU216DAVISVP2,2013-08-05 05:27:00,
2013-08-05 01:32:00,54.1,51.2,29.91,West,274,0.0,2.0,90,0.00,,,0.00,0.0,WUHU216DAVISVP2,2013-08-05 05:32:00,
2013-08-05 01:37:00,54.1,51.2,29.91,West,274,0.0,2.0,90,0.00,,,0.00,0.0,WUHU216DAVISVP2,2013-08-05 05:37:00,
2013-08-05 01:42:00,53.9,51.0,29.91,West,274,0.0,2.0,90,0.00,,,0.00,0.0,WUHU216DAVISVP2,2013-08-05 05:42:00,
2013-08-05 01:47:00,53.8,51.2,29.91,West,274,1.0,2.0,91,0.00,,,0.00,0.0,WUHU216DAVISVP2,2013-08-05 05:47:00,
2013-08-05 01:52:00,53.8,51.2,29.90,West,274,1.0,2.0,91,0.00,,,0.00,0.0,WUHU216DAVISVP2,2013-08-05 05:52:00,
2013-08-05 01:57:00,53.7,51.1,29.90,West,274,1.0,2.0,91,0.00,,,0.00,0.0,WUHU216DAVISVP2,2013-08-05 05:57:00,
2013-08-05 02:02:00,53.5,50.9,29.90,West,274,0.0,2.0,91,0.00,,,0.00,0.0,WUHU216DAVISVP2,2013-08-05 06:02:00,
2013-08-05 02:07:00,53.4,50.8,29.91,West,274,0.0,2.0,91,0.00,,,0.00,0.0,WUHU216DAVISVP2,2013-08-05 06:07:00,
2013-08-05 02:12:00,53.3,50.7,29.91,West,274,0.0,2.0,91,0.00,,,0.00,0.0,WUHU216DAVISVP2,2013-08-05 06:12:00,
2013-08-05 02:17:00,53.3,50.7,29.91,West,274,0.0,2.0,91,0.00,,,0.00,0.0,WUHU216DAVISVP2,2013-08-05 06:17:00,
2013-08-05 02:22:00,53.3,50.7,29.91,West,274,0.0,2.0,91,0.00,,,0.00,0.0,WUHU216DAVISVP2,2013-08-05 06:22:00,
2013-08-05 02:27:00,53.2,50.6,29.91,West,274,0.0,2.0,91,0.00,,,0.00,0.0,WUHU216DAVISVP2,2013-08-05 06:27:00,
2013-08-05 02:32:00,53.2,50.6,29.90,West,274,0.0,2.0,91,0.00,,,0.00,0.0,WUHU216DAVISVP2,2013-08-05 06:32:00,
2013-08-05 02:37:00,53.1,50.5,29.90,West,274,0.0,0.0,91,0.00,,,0.00,0.0,WUHU216DAVISVP2,2013-08-05 06:37:00,
2013-08-05 02:42:00,52.9,50.3,29.91,West,274,0.0,0.0,91,0.00,,,0.00,0.0,WUHU216DAVISVP2,2013-08-05 06:42:00,
2013-08-05 02:47:00,52.8,50.2,29.90,West,274,0.0,0.0,91,0.00,,,0.00,0.0,WUHU216DAVISVP2,2013-08-05 06:47:00,
2013-08-05 02:52:00,52.7,50.1,29.90,West,274,1.0,2.0,91,0.00,,,0.00,0.0,WUHU216DAVISVP2,2013-08-05 06:52:00,
2013-08-05 02:57:00,52.8,50.5,29.90,West,274,0.0,2.0,92,0.00,,,0.00,0.0,WUHU216DAVISVP2,2013-08-05 06:57:00,
2013-08-05 03:02:00,52.9,50.6,29.91,West,274,0.0,2.0,92,0.00,,,0.00,0.0,WUHU216DAVISVP2,2013-08-05 07:02:00,
2013-08-05 03:07:00,52.9,50.6,29.90,West,274,0.0,2.0,92,0.00,,,0.00,0.0,WUHU216DAVISVP2,2013-08-05 07:07:00,
2013-08-05 03:12:00,52.8,50.5,29.91,West,274,1.0,1.0,92,0.00,,,0.00,0.0,WUHU216DAVISVP2,2013-08-05 07:12:00,
2013-08-05 03:17:00,52.7,50.4,29.91,West,274,0.0,1.0,92,0.00,,,0.00,0.0,WUHU216DAVISVP2,2013-08-05 07:17:00,
2013-08-05 03:22:00,52.6,50.3,29.91,West,274,0.0,1.0,92,0.00,,,0.00,0.0,WUHU216DAVISVP2,2013-08-05 07:22:00,
2013-08-05 03:27:00,52.6,50.3,29.90,West,274,0.0,1.0,92,0.00,,,0.00,0.0,WUHU216DAVISVP2,2013-08-05 07:27:00,
2013-08-05 03:32:00,52.6,50.3,29.90,West,274,0.0,1.0,92,0.00,,,0.00,0.0,WUHU216DAVISVP2,2013-08-05 07:32:00,
2013-08-05 03:37:00,52.6,50.3,29.90,West,274,0.0,1.0,92,0.00,,,0.00,0.0,WUHU216DAVISVP2,2013-08-05 07:37:00,
2013-08-05 03:42:00,52.8,50.5,29.90,West,274,0.0,1.0,92,0.00,,,0.00,0.0,WUHU216DAVISVP2,2013-08-05 07:42:00,
2013-08-05 03:47:00,53.0,50.7,29.91,West,274,0.0,1.0,92,0.00,,,0.00,0.0,WUHU216DAVISVP2,2013-08-05 07:47:00,
2013-08-05 03:52:00,53.1,50.8,29.90,West,274,0.0,1.0,92,0.00,,,0.00,0.0,WUHU216DAVISVP2,2013-08-05 07:52:00,
2013-08-05 03:57:00,53.2,50.6,29.90,West,274,0.0,1.0,91,0.00,,,0.00,0.0,WUHU216DAVISVP2,2013-08-05 07:57:00,
2013-08-05 04:02:00,53.1,50.5,29.90,West,274,0.0,1.0,91,0.00,,,0.00,0.0,WUHU216DAVISVP2,2013-08-05 08:02:00,
2013-08-05 04:07:00,52.9,50.3,29.91,West,274,0.0,1.0,91,0.00,,,0.00,0.0,WUHU216DAVISVP2,2013-08-05 08:07:00,
2013-08-05 04:12:00,52.7,50.4,29.91,West,274,1.0,1.0,92,0.00,,,0.00,0.0,WUHU216DAVISVP2,2013-08-05 08:12:00,
2013-08-05 04:17:00,52.8,50.5,29.90,WNW,287,0.0,2.0,92,0.00,,,0.00,0.0,WUHU216DAVISVP2,2013-08-05 08:17:00,
2013-08-05 04:22:00,52.7,50.4,29.90,WNW,286,1.0,2.0,92,0.00,,,0.00,0.0,WUHU216DAVISVP2,2013-08-05 08:22:00,
2013-08-05 04:27:00,52.6,50.3,29.91,WNW,286,0.0,2.0,92,0.00,,,0.00,0.0,WUHU216DAVISVP2,2013-08-05 08:27:00,
2013-08-05 04:32:00,52.4,50.1,29.91,WNW,286,0.0,2.0,92,0.00,,,0.00,0.0,WUHU216DAVISVP2,2013-08-05 08:32:00,
2013-08-05 04:37:00,52.2,49.9,29.91,WNW,286,0.0,2.0,92,0.00,,,0.00,0.0,WUHU216DAVISVP2,2013-08-05 08:37:00,
2013-08-05 04:43:00,52.0,49.7,29.91,WNW,286,0.0,1.0,92,0.00,,,0.00,0.0,WUHU216DAVISVP2,2013-08-05 08:43:00,
2013-08-05 04:48:00,51.8,49.5,29.91,WNW,286,0.0,1.0,92,0.00,,,0.00,0.0,WUHU216DAVISVP2,2013-08-05 08:48:00,
2013-08-05 04:53:00,51.7,49.4,29.91,WNW,285,0.0,1.0,92,0.00,,,0.00,0.0,WUHU216DAVISVP2,2013-08-05 08:53:00,
2013-08-05 04:59:00,51.8,49.5,29.91,WNW,285,0.0,1.0,92,0.00,,,0.00,0.0,WUHU216DAVISVP2,2013-08-05 08:59:00,
2013-08-05 05:04:00,52.0,49.7,29.91,WNW,285,0.0,1.0,92,0.00,,,0.00,0.0,WUHU216DAVISVP2,2013-08-05 09:04:00,
2013-08-05 05:09:00,52.1,49.8,29.92,WNW,285,0.0,1.0,92,0.00,,,0.00,0.0,WUHU216DAVISVP2,2013-08-05 09:09:00,
2013-08-05 05:14:00,52.1,49.8,29.92,WNW,285,0.0,1.0,92,0.00,,,0.00,0.0,WUHU216DAVISVP2,2013-08-05 09:14:00,
2013-08-05 05:20:00,52.1,49.8,29.92,WNW,285,0.0,1.0,92,0.00,,,0.00,0.0,WUHU216DAVISVP2,2013-08-05 09:20:00,
2013-08-05 05:25:00,52.4,50.4,29.92,WNW,285,0.0,1.0,93,0.00,,,0.00,0.0,WUHU216DAVISVP2,2013-08-05 09:25:00,
2013-08-05 05:30:00,52.6,50.6,29.92,WNW,285,0.0,1.0,93,0.00,,,0.00,0.0,WUHU216DAVISVP2,2013-08-05 09:30:00,
2013-08-05 05:35:00,53.0,51.0,29.93,WNW,285,0.0,1.0,93,0.00,,,0.00,0.0,WUHU216DAVISVP2,2013-08-05 09:35:00,
2013-08-05 05:40:00,53.4,51.4,29.93,WNW,285,0.0,1.0,93,0.00,,,0.00,0.0,WUHU216DAVISVP2,2013-08-05 09:40:00,
2013-08-05 05:46:00,53.8,51.8,29.93,WNW,285,0.0,1.0,93,0.00,,,0.00,5.0,WUHU216DAVISVP2,2013-08-05 09:46:00,
2013-08-05 05:51:00,54.2,52.2,29.93,WNW,286,3.0,3.0,93,0.00,,,0.00,11.0,WUHU216DAVISVP2,2013-08-05 09:51:00,
2013-08-05 05:56:00,55.4,53.1,29.93,WNW,286,2.0,3.0,92,0.00,,,0.00,18.0,WUHU216DAVISVP2,2013-08-05 09:56:00,
2013-08-05 06:01:00,56.3,52.8,29.93,NNW,328,1.0,6.0,88,0.00,,,0.00,23.0,WUHU216DAVISVP2,2013-08-05 10:01:00,
2013-08-05 06:07:00,56.4,52.9,29.94,WNW,289,1.0,6.0,88,0.00,,,0.00,18.0,WUHU216DAVISVP2,2013-08-05 10:07:00,
2013-08-05 06:12:00,56.7,52.6,29.94,WNW,303,3.0,6.0,86,0.00,,,0.00,21.0,WUHU216DAVISVP2,2013-08-05 10:12:00,
2013-08-05 06:17:00,57.0,52.2,29.94,West,272,2.0,6.0,84,0.00,,,0.00,25.0,WUHU216DAVISVP2,2013-08-05 10:17:00,
2013-08-05 06:22:00,57.1,52.0,29.94,WNW,284,2.0,4.0,83,0.00,,,0.00,35.0,WUHU216DAVISVP2,2013-08-05 10:22:00,
2013-08-05 06:27:00,57.3,51.2,29.94,West,264,2.0,5.0,80,0.00,,,0.00,25.0,WUHU216DAVISVP2,2013-08-05 10:27:00,
2013-08-05 06:32:00,57.1,51.0,29.94,WNW,298,2.0,5.0,80,0.00,,,0.00,18.0,WUHU216DAVISVP2,2013-08-05 10:32:00,
2013-08-05 06:37:00,56.9,50.8,29.94,West,277,2.0,5.0,80,0.00,,,0.00,21.0,WUHU216DAVISVP2,2013-08-05 10:37:00,
2013-08-05 06:43:00,56.7,51.0,29.95,WNW,295,3.0,5.0,81,0.00,,,0.00,26.0,WUHU216DAVISVP2,2013-08-05 10:43:00,
2013-08-05 06:48:00,56.8,50.7,29.95,WNW,284,2.0,4.0,80,0.00,,,0.00,21.0,WUHU216DAVISVP2,2013-08-05 10:48:00,
2013-08-05 06:54:00,56.9,50.8,29.95,WNW,297,4.0,4.0,80,0.00,,,0.00,32.0,WUHU216DAVISVP2,2013-08-05 10:54:00,
2013-08-05 06:58:00,57.1,50.7,29.95,WNW,294,2.0,4.0,79,0.00,,,0.00,39.0,WUHU216DAVISVP2,2013-08-05 10:58:00,
2013-08-05 07:04:00,57.5,51.1,29.95,WNW,301,3.0,4.0,79,0.00,,,0.00,81.0,WUHU216DAVISVP2,2013-08-05 11:04:00,
2013-08-05 07:09:00,57.9,51.1,29.95,WNW,292,2.0,5.0,78,0.00,,,0.00,102.0,WUHU216DAVISVP2,2013-08-05 11:09:00,
2013-08-05 07:14:00,58.4,51.6,29.96,WNW,285,3.0,5.0,78,0.00,,,0.00,91.0,WUHU216DAVISVP2,2013-08-05 11:14:00,
2013-08-05 07:19:00,58.8,51.2,29.95,WNW,300,2.0,6.0,76,0.00,,,0.00,97.0,WUHU216DAVISVP2,2013-08-05 11:19:00,
2013-08-05 07:25:00,58.6,50.8,29.96,West,271,4.0,6.0,75,0.00,,,0.00,83.0,WUHU216DAVISVP2,2013-08-05 11:25:00,
2013-08-05 07:30:00,58.4,49.5,29.96,WNW,282,2.0,7.0,72,0.00,,,0.00,74.0,WUHU216DAVISVP2,2013-08-05 11:30:00,
2013-08-05 07:35:00,58.2,49.0,29.96,WNW,295,4.0,7.0,71,0.00,,,0.00,53.0,WUHU216DAVISVP2,2013-08-05 11:35:00,
2013-08-05 07:40:00,58.1,48.9,29.96,NW,306,3.0,7.0,71,0.00,,,0.00,53.0,WUHU216DAVISVP2,2013-08-05 11:40:00,
2013-08-05 07:45:00,58.1,49.2,29.96,NW,307,1.0,7.0,72,0.00,,,0.00,51.0,WUHU216DAVISVP2,2013-08-05 11:45:00,
2013-08-05 07:50:00,58.2,49.0,29.96,WNW,284,2.0,7.0,71,0.00,,,0.00,53.0,WUHU216DAVISVP2,2013-08-05 11:50:00,
2013-08-05 07:55:00,58.4,48.0,29.96,WNW,289,5.0,10.0,68,0.00,,,0.00,70.0,WUHU216DAVISVP2,2013-08-05 11:55:00,
2013-08-05 08:00:00,58.6,48.6,29.96,West,267,4.0,12.0,69,0.00,,,0.00,83.0,WUHU216DAVISVP2,2013-08-05 12:00:00,
2013-08-05 08:05:00,58.6,47.8,29.96,West,270,2.0,12.0,67,0.00,,,0.00,77.0,WUHU216DAVISVP2,2013-08-05 12:05:00,
2013-08-05 08:10:00,58.8,48.0,29.96,WNW,284,4.0,11.0,67,0.00,,,0.00,81.0,WUHU216DAVISVP2,2013-08-05 12:10:00,
2013-08-05 08:15:00,58.7,47.5,29.96,West,281,4.0,11.0,66,0.00,,,0.00,67.0,WUHU216DAVISVP2,2013-08-05 12:15:00,
2013-08-05 08:21:00,58.8,47.2,29.96,West,281,6.0,10.0,65,0.00,,,0.00,72.0,WUHU216DAVISVP2,2013-08-05 12:21:00,
2013-08-05 08:26:00,59.0,47.4,29.96,WSW,244,3.0,10.0,65,0.00,,,0.00,69.0,WUHU216DAVISVP2,2013-08-05 12:26:00,
2013-08-05 08:31:00,59.3,47.7,29.97,WNW,303,3.0,10.0,65,0.00,,,0.00,70.0,WUHU216DAVISVP2,2013-08-05 12:31:00,
2013-08-05 08:36:00,59.5,47.9,29.97,West,275,6.0,10.0,65,0.00,,,0.00,91.0,WUHU216DAVISVP2,2013-08-05 12:36:00,
2013-08-05 08:41:00,60.0,47.9,29.97,WNW,297,4.0,10.0,64,0.00,,,0.00,155.0,WUHU216DAVISVP2,2013-08-05 12:41:00,
2013-08-05 08:46:00,60.2,48.1,29.97,West,275,2.0,10.0,64,0.00,,,0.00,461.0,WUHU216DAVISVP2,2013-08-05 12:46:00,
2013-08-05 08:52:00,60.5,48.0,29.97,WNW,301,2.0,9.0,63,0.00,,,0.00,534.0,WUHU216DAVISVP2,2013-08-05 12:52:00,
2013-08-05 08:57:00,61.1,49.0,29.97,WNW,288,4.0,8.0,64,0.00,,,0.00,552.0,WUHU216DAVISVP2,2013-08-05 12:57:00,
2013-08-05 09:02:00,61.3,49.2,29.97,NW,308,3.0,7.0,64,0.00,,,0.00,568.0,WUHU216DAVISVP2,2013-08-05 13:02:00,
2013-08-05 09:07:00,61.4,47.5,29.97,WNW,301,2.0,7.0,60,0.00,,,0.00,584.0,WUHU216DAVISVP2,2013-08-05 13:07:00,
2013-08-05 09:12:00,61.8,49.2,29.97,NW,307,2.0,6.0,63,0.00,,,0.00,599.0,WUHU216DAVISVP2,2013-08-05 13:12:00,
2013-08-05 09:17:00,62.0,48.5,29.97,WNW,291,5.0,6.0,61,0.00,,,0.00,612.0,WUHU216DAVISVP2,2013-08-05 13:17:00,
2013-08-05 09:23:00,62.1,48.6,29.97,WNW,302,3.0,6.0,61,0.00,,,0.00,629.0,WUHU216DAVISVP2,2013-08-05 13:23:00,
2013-08-05 09:28:00,62.3,49.3,29.97,WNW,297,5.0,8.0,62,0.00,,,0.00,643.0,WUHU216DAVISVP2,2013-08-05 13:28:00,
2013-08-05 09:33:00,63.1,50.0,29.97,WSW,255,2.0,8.0,62,0.00,,,0.00,666.0,WUHU216DAVISVP2,2013-08-05 13:33:00,
2013-08-05 09:39:00,63.1,48.2,29.97,WNW,303,7.0,8.0,58,0.00,,,0.00,664.0,WUHU216DAVISVP2,2013-08-05 13:39:00,
2013-08-05 09:44:00,63.7,48.6,29.97,NNW,330,1.9,8.0,58,0.00,,,0.00,684.0,WUHU216DAVISVP2,2013-08-05 13:44:00,
2013-08-05 09:49:00,64.4,49.9,29.97,South,185,5.0,9.2,59,0.00,,,0.00,700.0,WUHU216DAVISVP2,2013-08-05 13:49:00,
2013-08-05 09:54:00,63.7,48.3,29.97,WSW,258,2.1,11.2,57,0.00,,,0.00,710.0,WUHU216DAVISVP2,2013-08-05 13:54:00,
2013-08-05 10:00:00,63.6,46.7,29.97,WNW,284,2.1,11.2,54,0.00,,,0.00,726.0,WUHU216DAVISVP2,2013-08-05 14:00:00,
2013-08-05 10:05:00,63.9,48.5,29.97,West,263,6.7,8.7,57,0.00,,,0.00,735.0,WUHU216DAVISVP2,2013-08-05 14:05:00,
2013-08-05 10:10:00,64.1,45.1,29.98,WNW,284,0.3,8.7,50,0.00,,,0.00,747.0,WUHU216DAVISVP2,2013-08-05 14:10:00,
2013-08-05 10:15:00,64.4,48.0,29.98,West,261,2.3,9.9,55,0.00,,,0.00,759.0,WUHU216DAVISVP2,2013-08-05 14:15:00,
2013-08-05 10:20:00,64.7,47.2,29.98,SW,220,2.5,9.9,53,0.00,,,0.00,770.0,WUHU216DAVISVP2,2013-08-05 14:20:00,
2013-08-05 10:25:00,65.1,47.6,29.98,SW,227,5.9,9.7,53,0.00,,,0.00,782.0,WUHU216DAVISVP2,2013-08-05 14:25:00,
2013-08-05 10:30:00,65.9,50.8,29.98,WNW,293,1.4,9.7,58,0.00,,,0.00,796.0,WUHU216DAVISVP2,2013-08-05 14:30:00,
2013-08-05 10:35:00,66.2,51.1,29.98,NW,314,1.6,9.2,58,0.00,,,0.00,807.0,WUHU216DAVISVP2,2013-08-05 14:35:00,
2013-08-05 10:40:00,65.2,46.1,29.98,SSE,157,1.6,9.2,50,0.00,,,0.00,817.0,WUHU216DAVISVP2,2013-08-05 14:40:00,
2013-08-05 10:46:00,66.4,49.3,29.98,WSW,245,0.0,9.1,54,0.00,,,0.00,830.0,WUHU216DAVISVP2,2013-08-05 14:46:00,
2013-08-05 10:51:00,66.8,46.5,29.98,WNW,293,1.6,8.6,48,0.00,,,0.00,844.0,WUHU216DAVISVP2,2013-08-05 14:51:00,
2013-08-05 10:56:00,66.6,48.0,29.97,NNW,346,2.4,8.6,51,0.00,,,0.00,758.0,WUHU216DAVISVP2,2013-08-05 14:56:00,
2013-08-05 11:01:00,66.7,48.1,29.98,NW,307,2.3,9.2,51,0.00,,,0.00,765.0,WUHU216DAVISVP2,2013-08-05 15:01:00,
2013-08-05 11:06:00,66.5,47.9,29.98,West,277,4.3,9.2,51,0.00,,,0.00,872.0,WUHU216DAVISVP2,2013-08-05 15:06:00,
2013-08-05 11:11:00,66.9,46.0,29.98,WNW,283,2.5,7.3,47,0.00,,,0.00,879.0,WUHU216DAVISVP2,2013-08-05 15:11:00,
2013-08-05 11:16:00,66.9,45.4,29.98,SSE,157,2.7,8.5,46,0.00,,,0.00,879.0,WUHU216DAVISVP2,2013-08-05 15:16:00,
2013-08-05 11:22:00,68.7,50.4,29.98,SSW,201,1.7,8.5,52,0.00,,,0.00,900.0,WUHU216DAVISVP2,2013-08-05 15:22:00,
2013-08-05 11:27:00,67.9,45.7,29.98,WNW,295,7.4,10.7,45,0.00,,,0.00,933.0,WUHU216DAVISVP2,2013-08-05 15:27:00,
2013-08-05 11:32:00,68.3,44.9,29.98,WSW,240,5.9,10.7,43,0.00,,,0.00,861.0,WUHU216DAVISVP2,2013-08-05 15:32:00,
2013-08-05 11:37:00,68.0,46.4,29.98,WSW,237,4.1,10.5,46,0.00,,,0.00,823.0,WUHU216DAVISVP2,2013-08-05 15:37:00,
2013-08-05 11:43:00,68.5,46.9,29.98,SW,236,2.2,10.5,46,0.00,,,0.00,928.0,WUHU216DAVISVP2,2013-08-05 15:43:00,
2013-08-05 11:47:00,68.6,43.9,29.98,WSW,248,2.1,8.8,41,0.00,,,0.00,930.0,WUHU216DAVISVP2,2013-08-05 15:47:00,
2013-08-05 11:53:00,68.8,46.6,29.98,SW,235,3.1,8.8,45,0.00,,,0.00,933.0,WUHU216DAVISVP2,2013-08-05 15:53:00,
2013-08-05 11:58:00,69.3,45.8,29.98,WSW,248,4.4,7.0,43,0.00,,,0.00,942.0,WUHU216DAVISVP2,2013-08-05 15:58:00,
2013-08-05 12:03:00,69.9,46.4,29.97,NW,304,0.0,8.5,43,0.00,,,0.00,949.0,WUHU216DAVISVP2,2013-08-05 16:03:00,
2013-08-05 12:08:00,69.7,44.8,29.97,West,281,0.0,9.3,41,0.00,,,0.00,949.0,WUHU216DAVISVP2,2013-08-05 16:08:00,
2013-08-05 12:13:00,70.1,47.7,29.97,WSW,257,6.6,9.3,45,0.00,,,0.00,956.0,WUHU216DAVISVP2,2013-08-05 16:13:00,
2013-08-05 12:18:00,70.7,47.7,29.97,WSW,243,4.6,8.9,44,0.00,,,0.00,935.0,WUHU216DAVISVP2,2013-08-05 16:18:00,
2013-08-05 12:23:00,70.2,43.3,29.97,WNW,292,5.8,8.3,38,0.00,,,0.00,965.0,WUHU216DAVISVP2,2013-08-05 16:23:00,
2013-08-05 12:28:00,71.1,47.4,29.97,WSW,242,5.4,10.0,43,0.00,,,0.00,963.0,WUHU216DAVISVP2,2013-08-05 16:28:00,
2013-08-05 12:33:00,71.0,45.3,29.97,South,190,1.6,10.0,40,0.00,,,0.00,967.0,WUHU216DAVISVP2,2013-08-05 16:33:00,
2013-08-05 12:38:00,71.0,44.7,29.97,West,261,7.5,8.5,39,0.00,,,0.00,965.0,WUHU216DAVISVP2,2013-08-05 16:38:00,
2013-08-05 12:43:00,71.3,45.6,29.97,WSW,252,3.2,8.5,40,0.00,,,0.00,965.0,WUHU216DAVISVP2,2013-08-05 16:43:00,
2013-08-05 12:48:00,71.1,44.1,29.96,SSE,155,2.7,13.1,38,0.00,,,0.00,967.0,WUHU216DAVISVP2,2013-08-05 16:48:00,
2013-08-05 12:53:00,71.3,48.2,29.96,South,173,3.6,13.1,44,0.00,,,0.00,969.0,WUHU216DAVISVP2,2013-08-05 16:53:00,
2013-08-05 12:58:00,71.8,44.7,29.96,NNW,329,3.5,8.6,38,0.00,,,0.00,967.0,WUHU216DAVISVP2,2013-08-05 16:58:00,
2013-08-05 13:03:00,72.0,48.2,29.96,WNW,292,1.4,11.4,43,0.00,,,0.00,969.0,WUHU216DAVISVP2,2013-08-05 17:03:00,
2013-08-05 13:09:00,72.1,48.9,29.96,WNW,294,2.6,11.4,44,0.00,,,0.00,967.0,WUHU216DAVISVP2,2013-08-05 17:09:00,
2013-08-05 13:14:00,72.2,42.9,29.95,WSW,252,0.0,11.4,35,0.00,,,0.00,967.0,WUHU216DAVISVP2,2013-08-05 17:14:00,
2013-08-05 13:19:00,73.0,45.8,29.95,West,281,2.9,11.4,38,0.00,,,0.00,963.0,WUHU216DAVISVP2,2013-08-05 17:19:00,
2013-08-05 13:24:00,72.6,42.6,29.95,West,261,4.0,11.5,34,0.00,,,0.00,963.0,WUHU216DAVISVP2,2013-08-05 17:24:00,
2013-08-05 13:29:00,72.8,45.7,29.95,WSW,258,5.3,11.5,38,0.00,,,0.00,958.0,WUHU216DAVISVP2,2013-08-05 17:29:00,
2013-08-05 13:34:00,73.2,44.6,29.95,SW,229,3.5,8.4,36,0.00,,,0.00,960.0,WUHU216DAVISVP2,2013-08-05 17:34:00,
2013-08-05 13:39:00,72.5,46.1,29.95,NW,316,1.4,10.8,39,0.00,,,0.00,953.0,WUHU216DAVISVP2,2013-08-05 17:39:00,
2013-08-05 13:44:00,72.9,45.1,29.95,SW,235,4.0,10.8,37,0.00,,,0.00,949.0,WUHU216DAVISVP2,2013-08-05 17:44:00,
2013-08-05 13:49:00,73.4,46.1,29.95,WNW,288,3.6,8.2,38,0.00,,,0.00,949.0,WUHU216DAVISVP2,2013-08-05 17:49:00,
2013-08-05 13:54:00,73.3,46.7,29.95,WSW,255,2.7,9.9,39,0.00,,,0.00,949.0,WUHU216DAVISVP2,2013-08-05 17:54:00,
2013-08-05 13:59:00,73.8,45.0,29.95,West,272,4.8,9.9,36,0.00,,,0.00,940.0,WUHU216DAVISVP2,2013-08-05 17:59:00,
2013-08-05 14:04:00,73.7,44.9,29.95,West,271,2.1,8.5,36,0.00,,,0.00,939.0,WUHU216DAVISVP2,2013-08-05 18:04:00,
2013-08-05 14:09:00,73.4,43.1,29.95,West,274,2.1,8.6,34,0.00,,,0.00,932.0,WUHU216DAVISVP2,2013-08-05 18:09:00,
2013-08-05 14:14:00,73.5,45.5,29.95,WNW,287,4.2,10.9,37,0.00,,,0.00,926.0,WUHU216DAVISVP2,2013-08-05 18:14:00,
2013-08-05 14:19:00,73.7,44.9,29.95,West,265,3.2,10.9,36,0.00,,,0.00,923.0,WUHU216DAVISVP2,2013-08-05 18:19:00,
2013-08-05 14:24:00,73.7,46.4,29.95,SSW,200,0.0,10.9,38,0.00,,,0.00,914.0,WUHU216DAVISVP2,2013-08-05 18:24:00,
2013-08-05 14:29:00,74.0,44.4,29.95,West,264,2.7,14.0,35,0.00,,,0.00,905.0,WUHU216DAVISVP2,2013-08-05 18:29:00,
2013-08-05 14:34:00,74.0,44.4,29.95,WNW,294,3.9,14.0,35,0.00,,,0.00,902.0,WUHU216DAVISVP2,2013-08-05 18:34:00,
2013-08-05 14:39:00,74.1,46.0,29.95,NW,309,3.6,7.3,37,0.00,,,0.00,889.0,WUHU216DAVISVP2,2013-08-05 18:39:00,
2013-08-05 14:44:00,74.1,43.8,29.95,SW,223,4.6,8.0,34,0.00,,,0.00,881.0,WUHU216DAVISVP2,2013-08-05 18:44:00,
2013-08-05 14:49:00,74.5,44.3,29.95,WNW,297,4.8,9.0,34,0.00,,,0.00,872.0,WUHU216DAVISVP2,2013-08-05 18:49:00,
2013-08-05 14:54:00,74.0,45.3,29.95,WSW,246,2.9,12.6,36,0.00,,,0.00,863.0,WUHU216DAVISVP2,2013-08-05 18:54:00,
2013-08-05 15:00:00,74.4,43.4,29.95,WNW,291,5.6,12.6,33,0.00,,,0.00,858.0,WUHU216DAVISVP2,2013-08-05 19:00:00,
2013-08-05 15:05:00,74.1,46.2,29.95,NW,316,2.0,9.5,37,0.00,,,0.00,847.0,WUHU216DAVISVP2,2013-08-05 19:05:00,
2013-08-05 15:10:00,74.5,42.7,29.95,West,263,5.8,9.5,32,0.00,,,0.00,833.0,WUHU216DAVISVP2,2013-08-05 19:10:00,
2013-08-05 15:16:00,74.4,44.0,29.95,SSW,206,5.5,9.7,34,0.00,,,0.00,823.0,WUHU216DAVISVP2,2013-08-05 19:16:00,
2013-08-05 15:21:00,74.2,43.1,29.95,West,277,4.9,9.7,33,0.00,,,0.00,812.0,WUHU216DAVISVP2,2013-08-05 19:21:00,
2013-08-05 15:25:00,74.2,43.9,29.95,West,279,4.8,9.9,34,0.00,,,0.00,809.0,WUHU216DAVISVP2,2013-08-05 19:25:00,
2013-08-05 15:30:00,74.2,42.3,29.95,WNW,292,6.3,9.9,32,0.00,,,0.00,174.0,WUHU216DAVISVP2,2013-08-05 19:30:00,
2013-08-05 15:36:00,74.1,40.5,29.95,West,271,4.5,8.6,30,0.00,,,0.00,102.0,WUHU216DAVISVP2,2013-08-05 19:36:00,
2013-08-05 15:41:00,73.9,43.6,29.95,WNW,291,4.4,8.6,34,0.00,,,0.00,102.0,WUHU216DAVISVP2,2013-08-05 19:41:00,
2013-08-05 15:46:00,73.7,42.0,29.95,NW,311,5.5,10.3,32,0.00,,,0.00,272.0,WUHU216DAVISVP2,2013-08-05 19:46:00,
2013-08-05 15:51:00,73.5,44.8,29.95,SSW,199,5.3,10.3,36,0.00,,,0.00,172.0,WUHU216DAVISVP2,2013-08-05 19:51:00,
2013-08-05 15:57:00,73.7,38.4,29.95,WSW,250,5.6,8.1,28,0.00,,,0.00,105.0,WUHU216DAVISVP2,2013-08-05 19:57:00,
2013-08-05 16:02:00,73.6,38.3,29.95,WNW,288,3.0,8.1,28,0.00,,,0.00,216.0,WUHU216DAVISVP2,2013-08-05 20:02:00,
2013-08-05 16:07:00,73.5,40.0,29.95,WSW,257,1.5,10.8,30,0.00,,,0.00,255.0,WUHU216DAVISVP2,2013-08-05 20:07:00,
2013-08-05 16:12:00,73.8,38.5,29.95,WNW,284,0.9,10.8,28,0.00,,,0.00,237.0,WUHU216DAVISVP2,2013-08-05 20:12:00,
2013-08-05 16:17:00,73.4,35.3,29.96,SSW,201,3.3,10.9,25,0.00,,,0.00,680.0,WUHU216DAVISVP2,2013-08-05 20:17:00,
2013-08-05 16:22:00,73.4,34.3,29.95,West,276,2.4,10.9,24,0.00,,,0.00,670.0,WUHU216DAVISVP2,2013-08-05 20:22:00,
2013-08-05 16:27:00,73.5,35.5,29.96,West,265,3.4,11.5,25,0.00,,,0.00,652.0,WUHU216DAVISVP2,2013-08-05 20:27:00,
2013-08-05 16:32:00,73.6,35.6,29.96,West,273,1.9,11.5,25,0.00,,,0.00,619.0,WUHU216DAVISVP2,2013-08-05 20:32:00,
2013-08-05 16:37:00,73.4,34.3,29.95,WSW,243,2.7,7.7,24,0.00,,,0.00,98.0,WUHU216DAVISVP2,2013-08-05 20:37:00,
2013-08-05 16:42:00,72.9,37.7,29.96,West,279,2.9,7.2,28,0.00,,,0.00,102.0,WUHU216DAVISVP2,2013-08-05 20:42:00,
2013-08-05 16:47:00,72.8,36.7,29.96,SSW,201,1.8,8.4,27,0.00,,,0.00,178.0,WUHU216DAVISVP2,2013-08-05 20:47:00,
2013-08-05 16:52:00,72.5,35.5,29.96,West,259,0.0,8.4,26,0.00,,,0.00,102.0,WUHU216DAVISVP2,2013-08-05 20:52:00,
2013-08-05 16:58:00,72.5,38.3,29.96,SSW,202,2.3,6.7,29,0.00,,,0.00,237.0,WUHU216DAVISVP2,2013-08-05 20:58:00,
2013-08-05 17:03:00,72.4,39.0,29.96,WNW,290,1.4,6.7,30,0.00,,,0.00,327.0,WUHU216DAVISVP2,2013-08-05 21:03:00,
2013-08-05 17:08:00,72.1,37.9,29.96,WSW,239,1.4,6.3,29,0.00,,,0.00,225.0,WUHU216DAVISVP2,2013-08-05 21:08:00,
2013-08-05 17:13:00,71.7,40.9,29.96,WNW,295,1.8,7.9,33,0.00,,,0.00,137.0,WUHU216DAVISVP2,2013-08-05 21:13:00,
2013-08-05 17:18:00,72.0,41.1,29.96,WSW,240,2.5,8.9,33,0.00,,,0.00,107.0,WUHU216DAVISVP2,2013-08-05 21:18:00,
2013-08-05 17:23:00,71.9,39.6,29.96,WNW,292,2.8,8.1,31,0.00,,,0.00,174.0,WUHU216DAVISVP2,2013-08-05 21:23:00,
2013-08-05 17:28:00,71.0,41.2,29.96,WNW,287,0.0,7.2,34,0.00,,,0.00,135.0,WUHU216DAVISVP2,2013-08-05 21:28:00,
2013-08-05 17:33:00,71.1,40.5,29.97,WSW,251,4.8,7.2,33,0.00,,,0.00,213.0,WUHU216DAVISVP2,2013-08-05 21:33:00,
2013-08-05 17:38:00,70.8,37.0,29.96,SW,217,0.0,8.3,29,0.00,,,0.00,127.0,WUHU216DAVISVP2,2013-08-05 21:38:00,
2013-08-05 17:43:00,70.5,42.1,29.96,WNW,298,3.0,8.3,36,0.00,,,0.00,125.0,WUHU216DAVISVP2,2013-08-05 21:43:00,
2013-08-05 17:48:00,71.1,38.9,29.96,SW,236,4.1,8.0,31,0.00,,,0.00,195.0,WUHU216DAVISVP2,2013-08-05 21:48:00,
2013-08-05 17:53:00,71.0,40.3,29.96,WNW,290,2.8,7.0,33,0.00,,,0.00,63.0,WUHU216DAVISVP2,2013-08-05 21:53:00,
2013-08-05 17:58:00,70.6,39.9,29.97,West,269,2.3,6.8,33,0.00,,,0.00,33.0,WUHU216DAVISVP2,2013-08-05 21:58:00,
2013-08-05 18:04:00,70.3,38.2,29.97,WSW,238,3.5,8.2,31,0.00,,,0.00,42.0,WUHU216DAVISVP2,2013-08-05 22:04:00,
2013-08-05 18:09:00,70.0,38.8,29.97,WSW,248,3.1,8.4,32,0.00,,,0.00,30.0,WUHU216DAVISVP2,2013-08-05 22:09:00,
2013-08-05 18:15:00,69.4,38.9,29.97,SSW,209,0.9,8.4,33,0.00,,,0.00,28.0,WUHU216DAVISVP2,2013-08-05 22:15:00,
2013-08-05 18:20:00,69.1,38.6,29.97,WSW,250,1.0,6.2,33,0.00,,,0.00,26.0,WUHU216DAVISVP2,2013-08-05 22:20:00,
2013-08-05 18:25:00,68.8,39.8,29.97,West,278,1.5,6.3,35,0.00,,,0.00,25.0,WUHU216DAVISVP2,2013-08-05 22:25:00,
2013-08-05 18:31:00,68.4,40.2,29.97,NW,319,0.9,6.3,36,0.00,,,0.00,23.0,WUHU216DAVISVP2,2013-08-05 22:31:00,
2013-08-05 18:36:00,66.4,42.5,29.97,WSW,248,0.0,5.3,42,0.00,,,0.00,23.0,WUHU216DAVISVP2,2013-08-05 22:36:00,
2013-08-05 18:41:00,65.4,44.6,29.98,NE,46,1.8,5.3,47,0.00,,,0.00,21.0,WUHU216DAVISVP2,2013-08-05 22:41:00,
2013-08-05 18:46:00,64.5,44.9,29.98,NE,49,0.0,4.5,49,0.00,,,0.00,21.0,WUHU216DAVISVP2,2013-08-05 22:46:00,
2013-08-05 18:51:00,64.3,45.3,29.98,NE,55,2.7,6.6,50,0.00,,,0.00,19.0,WUHU216DAVISVP2,2013-08-05 22:51:00,
2013-08-05 18:56:00,64.7,44.6,29.98,NNW,348,0.0,6.6,48,0.00,,,0.00,18.0,WUHU216DAVISVP2,2013-08-05 22:56:00,
2013-08-05 19:01:00,63.8,45.4,29.99,North,355,0.0,6.0,51,0.00,,,0.00,18.0,WUHU216DAVISVP2,2013-08-05 23:01:00,
2013-08-05 19:07:00,63.4,43.9,29.99,North,355,0.0,1.4,49,0.00,,,0.00,16.0,WUHU216DAVISVP2,2013-08-05 23:07:00,
2013-08-05 19:12:00,63.2,44.8,29.99,North,355,1.6,2.2,51,0.00,,,0.00,16.0,WUHU216DAVISVP2,2013-08-05 23:12:00,
2013-08-05 19:17:00,63.1,44.7,30.00,ENE,71,0.0,3.0,51,0.00,,,0.00,14.0,WUHU216DAVISVP2,2013-08-05 23:17:00,
2013-08-05 19:22:00,62.8,43.9,30.00,ENE,71,1.0,3.0,50,0.00,,,0.00,12.0,WUHU216DAVISVP2,2013-08-05 23:22:00,
2013-08-05 19:28:00,62.5,44.1,30.00,ENE,71,1.0,3.0,51,0.00,,,0.00,11.0,WUHU216DAVISVP2,2013-08-05 23:28:00,
2013-08-05 19:33:00,62.2,43.9,30.00,ENE,71,0.0,2.0,51,0.00,,,0.00,11.0,WUHU216DAVISVP2,2013-08-05 23:33:00,
2013-08-05 19:38:00,61.9,44.6,30.01,ENE,71,1.0,2.0,53,0.00,,,0.00,9.0,WUHU216DAVISVP2,2013-08-05 23:38:00,
2013-08-05 19:43:00,62.0,44.2,30.01,ENE,71,0.0,2.0,52,0.00,,,0.00,7.0,WUHU216DAVISVP2,2013-08-05 23:43:00,
2013-08-05 19:48:00,61.7,45.0,30.01,ENE,71,1.0,2.0,54,0.00,,,0.00,7.0,WUHU216DAVISVP2,2013-08-05 23:48:00,
2013-08-05 19:53:00,61.1,46.3,30.01,ENE,69,0.0,2.0,58,0.00,,,0.00,5.0,WUHU216DAVISVP2,2013-08-05 23:53:00,
2013-08-05 19:58:00,60.5,47.1,30.02,ENE,69,0.0,2.0,61,0.00,,,0.00,5.0,WUHU216DAVISVP2,2013-08-05 23:58:00,
2013-08-05 20:03:00,59.8,46.9,30.02,ENE,69,1.0,2.0,62,0.00,,,0.00,0.0,WUHU216DAVISVP2,2013-08-06 00:03:00,
2013-08-05 20:08:00,59.1,47.1,30.02,ENE,69,0.0,1.0,64,0.00,,,0.00,0.0,WUHU216DAVISVP2,2013-08-06 00:08:00,
2013-08-05 20:13:00,58.7,46.7,30.02,ENE,69,1.0,1.0,64,0.00,,,0.00,0.0,WUHU216DAVISVP2,2013-08-06 00:13:00,
2013-08-05 20:19:00,58.4,46.8,30.02,ENE,69,0.0,1.0,65,0.00,,,0.00,0.0,WUHU216DAVISVP2,2013-08-06 00:19:00,
2013-08-05 20:24:00,57.7,47.0,30.02,ENE,69,0.0,1.0,67,0.00,,,0.00,0.0,WUHU216DAVISVP2,2013-08-06 00:24:00,
2013-08-05 20:29:00,57.2,46.9,30.03,ENE,69,0.0,1.0,68,0.00,,,0.00,0.0,WUHU216DAVISVP2,2013-08-06 00:29:00,
2013-08-05 20:34:00,56.8,47.2,30.03,ENE,69,1.0,1.0,70,0.00,,,0.00,0.0,WUHU216DAVISVP2,2013-08-06 00:34:00,
2013-08-05 20:39:00,56.4,46.9,30.03,ENE,69,0.0,1.0,70,0.00,,,0.00,0.0,WUHU216DAVISVP2,2013-08-06 00:39:00,
2013-08-05 20:44:00,56.2,46.5,30.03,ENE,69,1.0,1.0,70,0.00,,,0.00,0.0,WUHU216DAVISVP2,2013-08-06 00:44:00,
2013-08-05 20:50:00,56.4,46.5,30.03,ENE,69,1.0,1.0,69,0.00,,,0.00,0.0,WUHU216DAVISVP2,2013-08-06 00:50:00,
2013-08-05 20:55:00,56.5,46.2,30.04,ENE,69,0.0,1.0,68,0.00,,,0.00,0.0,WUHU216DAVISVP2,2013-08-06 00:55:00,
2013-08-05 21:01:00,56.9,46.2,30.04,ENE,69,0.0,1.0,67,0.00,,,0.00,0.0,WUHU216DAVISVP2,2013-08-06 01:01:00,
2013-08-05 21:06:00,55.9,46.7,30.05,ENE,69,0.0,1.0,71,0.00,,,0.00,0.0,WUHU216DAVISVP2,2013-08-06 01:06:00,
2013-08-05 21:12:00,55.8,45.9,30.05,ENE,69,1.0,1.0,69,0.00,,,0.00,0.0,WUHU216DAVISVP2,2013-08-06 01:12:00,
2013-08-05 21:17:00,56.4,45.7,30.05,ENE,69,0.0,2.0,67,0.00,,,0.00,0.0,WUHU216DAVISVP2,2013-08-06 01:17:00,
2013-08-05 21:22:00,56.0,46.8,30.05,ENE,69,1.0,2.0,71,0.00,,,0.00,0.0,WUHU216DAVISVP2,2013-08-06 01:22:00,
2013-08-05 21:27:00,55.1,47.1,30.05,ENE,69,1.0,2.0,74,0.00,,,0.00,0.0,WUHU216DAVISVP2,2013-08-06 01:27:00,
2013-08-05 21:32:00,54.2,47.5,30.05,ENE,69,1.0,2.0,78,0.00,,,0.00,0.0,WUHU216DAVISVP2,2013-08-06 01:32:00,
2013-08-05 21:37:00,54.0,47.4,30.05,ENE,69,1.0,2.0,78,0.00,,,0.00,0.0,WUHU216DAVISVP2,2013-08-06 01:37:00,
2013-08-05 21:43:00,53.7,46.7,30.05,ENE,69,0.0,2.0,77,0.00,,,0.00,0.0,WUHU216DAVISVP2,2013-08-06 01:43:00,
2013-08-05 21:48:00,53.6,47.0,30.05,ENE,69,0.0,2.0,78,0.00,,,0.00,0.0,WUHU216DAVISVP2,2013-08-06 01:48:00,
2013-08-05 21:53:00,53.5,47.2,30.05,ENE,69,0.0,2.0,79,0.00,,,0.00,0.0,WUHU216DAVISVP2,2013-08-06 01:53:00,
2013-08-05 21:58:00,53.3,46.7,30.06,ENE,69,0.0,1.0,78,0.00,,,0.00,0.0,WUHU216DAVISVP2,2013-08-06 01:58:00,
2013-08-05 22:03:00,53.2,47.2,30.06,ENE,69,0.0,1.0,80,0.00,,,0.00,0.0,WUHU216DAVISVP2,2013-08-06 02:03:00,
2013-08-05 22:09:00,53.3,47.0,30.06,ENE,69,0.0,1.0,79,0.00,,,0.00,0.0,WUHU216DAVISVP2,2013-08-06 02:09:00,
2013-08-05 22:14:00,53.3,47.6,30.06,ENE,69,1.0,2.0,81,0.00,,,0.00,0.0,WUHU216DAVISVP2,2013-08-06 02:14:00,
2013-08-05 22:19:00,52.8,47.8,30.06,NW,319,1.0,2.0,83,0.00,,,0.00,0.0,WUHU216DAVISVP2,2013-08-06 02:19:00,
2013-08-05 22:24:00,52.7,47.7,30.07,NW,319,0.0,2.0,83,0.00,,,0.00,0.0,WUHU216DAVISVP2,2013-08-06 02:24:00,
2013-08-05 22:29:00,52.6,47.3,30.07,NW,319,0.0,2.0,82,0.00,,,0.00,0.0,WUHU216DAVISVP2,2013-08-06 02:29:00,
2013-08-05 22:34:00,52.4,47.4,30.06,NW,319,1.0,2.0,83,0.00,,,0.00,0.0,WUHU216DAVISVP2,2013-08-06 02:34:00,
2013-08-05 22:39:00,52.3,47.6,30.06,NW,319,1.0,2.0,84,0.00,,,0.00,0.0,WUHU216DAVISVP2,2013-08-06 02:39:00,
2013-08-05 22:45:00,52.1,47.4,30.06,NW,319,0.0,2.0,84,0.00,,,0.00,0.0,WUHU216DAVISVP2,2013-08-06 02:45:00,
2013-08-05 22:50:00,51.9,47.5,30.06,NW,319,0.0,2.0,85,0.00,,,0.00,0.0,WUHU216DAVISVP2,2013-08-06 02:50:00,
2013-08-05 22:55:00,51.7,47.3,30.06,NW,319,0.0,2.0,85,0.00,,,0.00,0.0,WUHU216DAVISVP2,2013-08-06 02:55:00,
2013-08-05 23:00:00,51.7,47.3,30.06,NW,319,1.0,2.0,85,0.00,,,0.00,0.0,WUHU216DAVISVP2,2013-08-06 03:00:00,
2013-08-05 23:05:00,51.6,46.9,30.07,NW,319,2.0,2.0,84,0.00,,,0.00,0.0,WUHU216DAVISVP2,2013-08-06 03:05:00,
2013-08-05 23:10:00,51.6,47.2,30.06,NW,319,2.0,2.0,85,0.00,,,0.00,0.0,WUHU216DAVISVP2,2013-08-06 03:10:00,
2013-08-05 23:16:00,51.6,47.5,30.06,NW,314,1.0,2.0,86,0.00,,,0.00,0.0,WUHU216DAVISVP2,2013-08-06 03:16:00,
2013-08-05 23:21:00,51.6,47.5,30.06,NW,314,0.0,2.0,86,0.00,,,0.00,0.0,WUHU216DAVISVP2,2013-08-06 03:21:00,
2013-08-05 23:26:00,51.5,47.4,30.06,NW,314,0.0,2.0,86,0.00,,,0.00,0.0,WUHU216DAVISVP2,2013-08-06 03:26:00,
2013-08-05 23:31:00,51.4,47.3,30.06,NW,314,0.0,2.0,86,0.00,,,0.00,0.0,WUHU216DAVISVP2,2013-08-06 03:31:00,
2013-08-05 23:36:00,50.9,46.8,30.06,NW,314,0.0,1.0,86,0.00,,,0.00,0.0,WUHU216DAVISVP2,2013-08-06 03:36:00,
2013-08-05 23:41:00,50.6,46.6,30.07,NW,314,0.0,1.0,86,0.00,,,0.00,0.0,WUHU216DAVISVP2,2013-08-06 03:41:00,
2013-08-05 23:46:00,50.5,46.5,30.07,NW,314,0.0,1.0,86,0.00,,,0.00,0.0,WUHU216DAVISVP2,2013-08-06 03:46:00,
2013-08-05 23:51:00,50.7,47.0,30.07,NW,314,1.0,1.0,87,0.00,,,0.00,0.0,WUHU216DAVISVP2,2013-08-06 03:51:00,
2013-08-05 23:57:00,50.4,47.0,30.06,NW,314,0.0,1.0,88,0.00,,,0.00,0.0,WUHU216DAVISVP2,2013-08-06 03:57:00,